sensor_id;sensor_type;location;lat;lon;timestamp;pressure;altitude;pressure_sealevel;temperature
49557;BMP280;35462;45.048;7.666;2022-10-31T00:00:32;99545.25;;;18.88
49557;BMP280;35462;45.048;7.666;2022-10-31T00:15:48;99551.44;;;18.76
49557;BMP280;35462;45.048;7.666;2022-10-31T00:31:06;99549.88;;;18.66
49557;BMP280;35462;45.048;7.666;2022-10-31T00:46:22;99545.22;;;18.57
49557;BMP280;35462;45.048;7.666;2022-10-31T01:01:39;99539.91;;;18.45
49557;BMP280;35462;45.048;7.666;2022-10-31T01:16:55;99549.69;;;18.39
49557;BMP280;35462;45.048;7.666;2022-10-31T01:32:11;99539.97;;;18.33
49557;BMP280;35462;45.048;7.666;2022-10-31T01:47:32;99534.41;;;18.27
49557;BMP280;35462;45.048;7.666;2022-10-31T02:02:49;99530.47;;;18.19
49557;BMP280;35462;45.048;7.666;2022-10-31T02:18:06;99524.91;;;18.14
49557;BMP280;35462;45.048;7.666;2022-10-31T02:48:53;99516.34;;;18.06
49557;BMP280;35462;45.048;7.666;2022-10-31T03:19:47;99514.03;;;17.96
49557;BMP280;35462;45.048;7.666;2022-10-31T03:35:08;99521.84;;;17.90
49557;BMP280;35462;45.048;7.666;2022-10-31T03:50:35;99522.69;;;17.87
49557;BMP280;35462;45.048;7.666;2022-10-31T04:05:55;99507.50;;;17.84
49557;BMP280;35462;45.048;7.666;2022-10-31T04:21:12;99518.91;;;17.76
49557;BMP280;35462;45.048;7.666;2022-10-31T04:36:28;99511.19;;;17.65
49557;BMP280;35462;45.048;7.666;2022-10-31T04:51:44;99514.94;;;17.56
49557;BMP280;35462;45.048;7.666;2022-10-31T05:07:03;99510.16;;;17.51
49557;BMP280;35462;45.048;7.666;2022-10-31T05:22:19;99500.06;;;17.42
49557;BMP280;35462;45.048;7.666;2022-10-31T05:37:35;99503.69;;;17.36
49557;BMP280;35462;45.048;7.666;2022-10-31T05:52:58;99500.94;;;17.27
49557;BMP280;35462;45.048;7.666;2022-10-31T06:08:20;99511.19;;;17.16
49557;BMP280;35462;45.048;7.666;2022-10-31T06:23:36;99521.56;;;17.01
49557;BMP280;35462;45.048;7.666;2022-10-31T06:39:07;99534.00;;;16.95
49557;BMP280;35462;45.048;7.666;2022-10-31T06:54:24;99549.66;;;17.09
49557;BMP280;35462;45.048;7.666;2022-10-31T07:09:40;99554.78;;;17.16
49557;BMP280;35462;45.048;7.666;2022-10-31T07:24:58;99569.38;;;17.28
49557;BMP280;35462;45.048;7.666;2022-10-31T07:40:29;99587.59;;;17.58
49557;BMP280;35462;45.048;7.666;2022-10-31T07:55:45;99593.91;;;17.88
49557;BMP280;35462;45.048;7.666;2022-10-31T08:11:02;99600.50;;;18.21
49557;BMP280;35462;45.048;7.666;2022-10-31T08:26:19;99589.56;;;18.49
49557;BMP280;35462;45.048;7.666;2022-10-31T08:41:35;99580.34;;;18.72
49557;BMP280;35462;45.048;7.666;2022-10-31T08:56:54;99573.22;;;18.99
49557;BMP280;35462;45.048;7.666;2022-10-31T09:12:27;99595.88;;;19.28
49557;BMP280;35462;45.048;7.666;2022-10-31T09:27:51;99570.56;;;19.47
49557;BMP280;35462;45.048;7.666;2022-10-31T09:58:27;99567.13;;;19.95
49557;BMP280;35462;45.048;7.666;2022-10-31T10:13:49;99566.22;;;20.16
49557;BMP280;35462;45.048;7.666;2022-10-31T10:29:28;99574.44;;;20.39
49557;BMP280;35462;45.048;7.666;2022-10-31T10:44:48;99563.66;;;20.57
49557;BMP280;35462;45.048;7.666;2022-10-31T11:00:23;99550.28;;;20.80
49557;BMP280;35462;45.048;7.666;2022-10-31T11:31:12;99520.66;;;21.21
49557;BMP280;35462;45.048;7.666;2022-10-31T11:46:37;99488.03;;;21.43
49557;BMP280;35462;45.048;7.666;2022-10-31T12:01:57;99468.38;;;21.66
49557;BMP280;35462;45.048;7.666;2022-10-31T12:32:50;99432.53;;;22.03
49557;BMP280;35462;45.048;7.666;2022-10-31T13:03:52;99404.09;;;22.36
49557;BMP280;35462;45.048;7.666;2022-10-31T13:19:18;99381.84;;;22.41
49557;BMP280;35462;45.048;7.666;2022-10-31T13:34:39;99356.16;;;22.46
49557;BMP280;35462;45.048;7.666;2022-10-31T13:50:19;99354.75;;;22.50
49557;BMP280;35462;45.048;7.666;2022-10-31T14:05:36;99342.50;;;22.54
49557;BMP280;35462;45.048;7.666;2022-10-31T14:20:52;99340.84;;;22.57
49557;BMP280;35462;45.048;7.666;2022-10-31T14:36:18;99332.88;;;22.48
49557;BMP280;35462;45.048;7.666;2022-10-31T14:51:41;99328.81;;;22.38
49557;BMP280;35462;45.048;7.666;2022-10-31T15:07:07;99322.28;;;22.30
49557;BMP280;35462;45.048;7.666;2022-10-31T15:22:31;99327.16;;;22.26
49557;BMP280;35462;45.048;7.666;2022-10-31T15:37:48;99329.84;;;22.26
49557;BMP280;35462;45.048;7.666;2022-10-31T15:53:13;99330.50;;;22.21
49557;BMP280;35462;45.048;7.666;2022-10-31T16:23:50;99340.53;;;22.01
49557;BMP280;35462;45.048;7.666;2022-10-31T16:39:08;99350.19;;;21.93
49557;BMP280;35462;45.048;7.666;2022-10-31T16:54:25;99373.72;;;21.78
49557;BMP280;35462;45.048;7.666;2022-10-31T17:09:41;99390.09;;;21.60
49557;BMP280;35462;45.048;7.666;2022-10-31T17:24:58;99401.38;;;21.50
49557;BMP280;35462;45.048;7.666;2022-10-31T17:40:17;99418.28;;;21.36
49557;BMP280;35462;45.048;7.666;2022-10-31T17:55:34;99427.53;;;21.20
49557;BMP280;35462;45.048;7.666;2022-10-31T18:10:50;99434.91;;;21.11
49557;BMP280;35462;45.048;7.666;2022-10-31T18:26:06;99435.84;;;21.08
49557;BMP280;35462;45.048;7.666;2022-10-31T18:41:22;99433.84;;;20.94
49557;BMP280;35462;45.048;7.666;2022-10-31T18:56:39;99424.47;;;20.81
49557;BMP280;35462;45.048;7.666;2022-10-31T19:11:55;99418.84;;;20.70
49557;BMP280;35462;45.048;7.666;2022-10-31T19:27:11;99420.84;;;20.60
49557;BMP280;35462;45.048;7.666;2022-10-31T19:42:27;99443.88;;;20.52
49557;BMP280;35462;45.048;7.666;2022-10-31T19:57:44;99456.16;;;20.45
49557;BMP280;35462;45.048;7.666;2022-10-31T20:13:01;99458.84;;;20.45
49557;BMP280;35462;45.048;7.666;2022-10-31T20:28:17;99455.72;;;20.37
49557;BMP280;35462;45.048;7.666;2022-10-31T20:43:33;99474.88;;;20.30
49557;BMP280;35462;45.048;7.666;2022-10-31T20:58:50;99467.72;;;20.27
49557;BMP280;35462;45.048;7.666;2022-10-31T21:14:06;99475.66;;;20.13
49557;BMP280;35462;45.048;7.666;2022-10-31T21:29:22;99473.28;;;20.06
49557;BMP280;35462;45.048;7.666;2022-10-31T21:44:38;99484.94;;;19.94
49557;BMP280;35462;45.048;7.666;2022-10-31T21:59:55;99484.94;;;19.76
49557;BMP280;35462;45.048;7.666;2022-10-31T22:15:11;99477.47;;;19.71
49557;BMP280;35462;45.048;7.666;2022-10-31T22:30:27;99482.53;;;19.69
49557;BMP280;35462;45.048;7.666;2022-10-31T22:45:53;99486.41;;;19.77
49557;BMP280;35462;45.048;7.666;2022-10-31T23:01:12;99457.13;;;19.61
49557;BMP280;35462;45.048;7.666;2022-10-31T23:16:29;99466.97;;;19.64
49557;BMP280;35462;45.048;7.666;2022-10-31T23:31:45;99445.50;;;19.55
49557;BMP280;35462;45.048;7.666;2022-10-31T23:47:02;99458.47;;;19.57
